sensor_id;sensor_type;location;lat;lon;timestamp;pressure;altitude;pressure_sealevel;temperature;humidity
50105;BME280;47690;39.202;-77.198;2024-02-26T00:02:02;100373.72;;;8.32;35.74
50105;BME280;47690;39.202;-77.198;2024-02-26T00:04:34;100378.00;;;8.29;35.80
50105;BME280;47690;39.202;-77.198;2024-02-26T00:07:04;100377.16;;;8.25;35.93
50105;BME280;47690;39.202;-77.198;2024-02-26T00:09:34;100369.50;;;8.20;35.87
50105;BME280;47690;39.202;-77.198;2024-02-26T00:12:05;100368.66;;;8.20;35.72
50105;BME280;47690;39.202;-77.198;2024-02-26T00:14:36;100373.81;;;8.14;36.20
50105;BME280;47690;39.202;-77.198;2024-02-26T00:17:04;100372.13;;;8.06;36.03
50105;BME280;47690;39.202;-77.198;2024-02-26T00:19:35;100370.41;;;7.99;36.28
50105;BME280;47690;39.202;-77.198;2024-02-26T00:22:04;100376.38;;;8.00;36.17
50105;BME280;47690;39.202;-77.198;2024-02-26T00:24:34;100373.84;;;7.98;35.90
50105;BME280;47690;39.202;-77.198;2024-02-26T00:27:04;100375.53;;;7.96;36.38
50105;BME280;47690;39.202;-77.198;2024-02-26T00:29:34;100374.69;;;7.94;36.25
50105;BME280;47690;39.202;-77.198;2024-02-26T00:32:04;100373.00;;;7.91;35.94
50105;BME280;47690;39.202;-77.198;2024-02-26T00:34:34;100384.09;;;7.90;36.34
50105;BME280;47690;39.202;-77.198;2024-02-26T00:37:04;100380.72;;;7.90;36.28
50105;BME280;47690;39.202;-77.198;2024-02-26T00:39:35;100378.97;;;7.89;36.26
50105;BME280;47690;39.202;-77.198;2024-02-26T00:42:04;100369.56;;;7.88;36.37
50105;BME280;47690;39.202;-77.198;2024-02-26T00:44:34;100373.84;;;7.92;36.08
50105;BME280;47690;39.202;-77.198;2024-02-26T00:47:03;100377.25;;;7.92;36.14
50105;BME280;47690;39.202;-77.198;2024-02-26T00:49:34;100375.56;;;7.91;36.39
50105;BME280;47690;39.202;-77.198;2024-02-26T00:52:05;100377.28;;;7.91;36.50
50105;BME280;47690;39.202;-77.198;2024-02-26T00:54:35;100383.28;;;7.90;36.51
50105;BME280;47690;39.202;-77.198;2024-02-26T00:57:04;100380.72;;;7.90;36.20
50105;BME280;47690;39.202;-77.198;2024-02-26T00:59:34;100375.56;;;7.91;36.30
50105;BME280;47690;39.202;-77.198;2024-02-26T01:02:04;100390.94;;;7.93;36.47
50105;BME280;47690;39.202;-77.198;2024-02-26T01:04:35;100384.13;;;7.92;36.21
50105;BME280;47690;39.202;-77.198;2024-02-26T01:07:03;100384.13;;;7.92;36.58
50105;BME280;47690;39.202;-77.198;2024-02-26T01:09:34;100381.56;;;7.92;36.67
50105;BME280;47690;39.202;-77.198;2024-02-26T01:12:04;100387.53;;;7.91;36.68
50105;BME280;47690;39.202;-77.198;2024-02-26T01:14:34;100396.09;;;7.90;36.53
50105;BME280;47690;39.202;-77.198;2024-02-26T01:17:04;100393.53;;;7.88;36.82
50105;BME280;47690;39.202;-77.198;2024-02-26T01:19:34;100387.53;;;7.88;36.48
50105;BME280;47690;39.202;-77.198;2024-02-26T01:22:04;100387.53;;;7.88;36.46
50105;BME280;47690;39.202;-77.198;2024-02-26T01:24:33;100382.44;;;7.86;36.68
50105;BME280;47690;39.202;-77.198;2024-02-26T01:27:02;100391.81;;;7.87;36.57
50105;BME280;47690;39.202;-77.198;2024-02-26T01:29:31;100387.53;;;7.88;36.78
50105;BME280;47690;39.202;-77.198;2024-02-26T01:32:03;100382.41;;;7.89;36.58
50105;BME280;47690;39.202;-77.198;2024-02-26T01:34:34;100378.97;;;7.90;36.44
50105;BME280;47690;39.202;-77.198;2024-02-26T01:37:05;100380.69;;;7.87;36.63
50105;BME280;47690;39.202;-77.198;2024-02-26T01:39:34;100374.72;;;7.83;36.68
50105;BME280;47690;39.202;-77.198;2024-02-26T01:42:04;100373.00;;;7.81;36.51
50105;BME280;47690;39.202;-77.198;2024-02-26T01:44:34;100375.56;;;7.81;36.50
50105;BME280;47690;39.202;-77.198;2024-02-26T01:47:03;100368.72;;;7.78;37.01
50105;BME280;47690;39.202;-77.198;2024-02-26T01:49:34;100371.31;;;7.75;36.66
50105;BME280;47690;39.202;-77.198;2024-02-26T01:52:04;100375.56;;;7.74;37.02
50105;BME280;47690;39.202;-77.198;2024-02-26T01:54:35;100377.31;;;7.72;36.93
50105;BME280;47690;39.202;-77.198;2024-02-26T01:57:06;100376.44;;;7.70;37.02
50105;BME280;47690;39.202;-77.198;2024-02-26T01:59:35;100373.03;;;7.68;37.19
50105;BME280;47690;39.202;-77.198;2024-02-26T02:02:07;100381.56;;;7.67;36.88
50105;BME280;47690;39.202;-77.198;2024-02-26T02:04:39;100389.28;;;7.64;36.92
50105;BME280;47690;39.202;-77.198;2024-02-26T02:07:08;100395.25;;;7.60;36.91
50105;BME280;47690;39.202;-77.198;2024-02-26T02:09:36;100390.97;;;7.59;36.96
50105;BME280;47690;39.202;-77.198;2024-02-26T02:12:05;100389.28;;;7.58;37.18
50105;BME280;47690;39.202;-77.198;2024-02-26T02:14:36;100389.28;;;7.58;37.25
50105;BME280;47690;39.202;-77.198;2024-02-26T02:17:04;100397.81;;;7.55;37.38
50105;BME280;47690;39.202;-77.198;2024-02-26T02:19:34;100390.13;;;7.52;37.18
50105;BME280;47690;39.202;-77.198;2024-02-26T02:22:03;100383.31;;;7.49;37.53
50105;BME280;47690;39.202;-77.198;2024-02-26T02:24:34;100387.59;;;7.47;37.52
50105;BME280;47690;39.202;-77.198;2024-02-26T02:27:04;100385.00;;;7.46;37.61
50105;BME280;47690;39.202;-77.198;2024-02-26T02:29:34;100379.88;;;7.41;37.43
50105;BME280;47690;39.202;-77.198;2024-02-26T02:32:03;100377.31;;;7.35;37.77
50105;BME280;47690;39.202;-77.198;2024-02-26T02:34:34;100379.03;;;7.31;37.86
50105;BME280;47690;39.202;-77.198;2024-02-26T02:37:05;100383.28;;;7.28;37.79
50105;BME280;47690;39.202;-77.198;2024-02-26T02:39:35;100376.47;;;7.23;37.66
50105;BME280;47690;39.202;-77.198;2024-02-26T02:42:05;100375.59;;;7.21;37.94
50105;BME280;47690;39.202;-77.198;2024-02-26T02:44:34;100386.72;;;7.22;37.82
50105;BME280;47690;39.202;-77.198;2024-02-26T02:47:04;100382.44;;;7.18;37.81
50105;BME280;47690;39.202;-77.198;2024-02-26T02:49:34;100381.56;;;7.19;37.81
50105;BME280;47690;39.202;-77.198;2024-02-26T02:52:03;100382.44;;;7.18;37.88
50105;BME280;47690;39.202;-77.198;2024-02-26T02:54:34;100382.44;;;7.18;38.05
50105;BME280;47690;39.202;-77.198;2024-02-26T02:57:04;100385.84;;;7.17;37.84
50105;BME280;47690;39.202;-77.198;2024-02-26T02:59:34;100380.72;;;7.14;37.83
50105;BME280;47690;39.202;-77.198;2024-02-26T03:02:04;100389.28;;;7.13;38.08
50105;BME280;47690;39.202;-77.198;2024-02-26T03:04:33;100389.25;;;7.11;37.82
50105;BME280;47690;39.202;-77.198;2024-02-26T03:07:02;100385.84;;;7.07;37.89
50105;BME280;47690;39.202;-77.198;2024-02-26T03:09:33;100388.41;;;7.07;37.94
50105;BME280;47690;39.202;-77.198;2024-02-26T03:12:01;100381.56;;;7.08;37.96
50105;BME280;47690;39.202;-77.198;2024-02-26T03:14:32;100381.56;;;7.06;37.76
50105;BME280;47690;39.202;-77.198;2024-02-26T03:17:01;100380.72;;;7.03;38.24
50105;BME280;47690;39.202;-77.198;2024-02-26T03:19:31;100382.41;;;7.02;38.17
50105;BME280;47690;39.202;-77.198;2024-02-26T03:22:00;100383.25;;;7.01;38.32
50105;BME280;47690;39.202;-77.198;2024-02-26T03:24:35;100387.53;;;7.02;38.23
50105;BME280;47690;39.202;-77.198;2024-02-26T03:27:04;100384.97;;;6.99;38.24
50105;BME280;47690;39.202;-77.198;2024-02-26T03:29:38;100377.28;;;6.96;38.23
50105;BME280;47690;39.202;-77.198;2024-02-26T03:32:06;100376.44;;;6.91;38.64
50105;BME280;47690;39.202;-77.198;2024-02-26T03:34:35;100378.97;;;6.89;38.37
50105;BME280;47690;39.202;-77.198;2024-02-26T03:37:04;100367.88;;;6.87;38.38
50105;BME280;47690;39.202;-77.198;2024-02-26T03:39:35;100364.47;;;6.83;38.56
50105;BME280;47690;39.202;-77.198;2024-02-26T03:42:04;100362.72;;;6.79;38.65
50105;BME280;47690;39.202;-77.198;2024-02-26T03:44:33;100355.91;;;6.74;38.86
50105;BME280;47690;39.202;-77.198;2024-02-26T03:47:05;100355.88;;;6.69;38.86
50105;BME280;47690;39.202;-77.198;2024-02-26T03:49:35;100352.44;;;6.62;38.82
50105;BME280;47690;39.202;-77.198;2024-02-26T03:52:04;100353.31;;;6.63;38.79
50105;BME280;47690;39.202;-77.198;2024-02-26T03:54:33;100343.03;;;6.60;39.00
50105;BME280;47690;39.202;-77.198;2024-02-26T03:57:03;100338.78;;;6.57;39.11
50105;BME280;47690;39.202;-77.198;2024-02-26T03:59:34;100338.78;;;6.55;39.02
50105;BME280;47690;39.202;-77.198;2024-02-26T04:02:03;100334.50;;;6.56;39.19
50105;BME280;47690;39.202;-77.198;2024-02-26T04:04:34;100324.25;;;6.56;39.24
50105;BME280;47690;39.202;-77.198;2024-02-26T04:07:05;100329.41;;;6.54;39.19
50105;BME280;47690;39.202;-77.198;2024-02-26T04:09:35;100327.69;;;6.55;39.36
50105;BME280;47690;39.202;-77.198;2024-02-26T04:12:05;100320.84;;;6.54;39.22
50105;BME280;47690;39.202;-77.198;2024-02-26T04:14:35;100323.41;;;6.52;39.24
50105;BME280;47690;39.202;-77.198;2024-02-26T04:17:04;100318.28;;;6.52;39.45
50105;BME280;47690;39.202;-77.198;2024-02-26T04:19:34;100317.44;;;6.52;39.24
50105;BME280;47690;39.202;-77.198;2024-02-26T04:22:04;100311.47;;;6.51;39.13
50105;BME280;47690;39.202;-77.198;2024-02-26T04:24:36;100314.00;;;6.51;39.25
50105;BME280;47690;39.202;-77.198;2024-02-26T04:27:04;100314.03;;;6.50;39.19
50105;BME280;47690;39.202;-77.198;2024-02-26T04:29:34;100301.22;;;6.48;39.38
50105;BME280;47690;39.202;-77.198;2024-02-26T04:32:04;100303.78;;;6.47;39.44
50105;BME280;47690;39.202;-77.198;2024-02-26T04:34:33;100308.88;;;6.45;39.21
50105;BME280;47690;39.202;-77.198;2024-02-26T04:37:03;100303.78;;;6.44;39.53
50105;BME280;47690;39.202;-77.198;2024-02-26T04:39:33;100306.34;;;6.44;39.38
50105;BME280;47690;39.202;-77.198;2024-02-26T04:42:01;100299.50;;;6.41;39.74
50105;BME280;47690;39.202;-77.198;2024-02-26T04:44:32;100293.50;;;6.40;39.33
50105;BME280;47690;39.202;-77.198;2024-02-26T04:47:01;100296.06;;;6.37;39.78
50105;BME280;47690;39.202;-77.198;2024-02-26T04:49:32;100294.38;;;6.39;39.69
50105;BME280;47690;39.202;-77.198;2024-02-26T04:52:02;100293.53;;;6.42;39.82
50105;BME280;47690;39.202;-77.198;2024-02-26T04:54:32;100293.50;;;6.40;39.73
50105;BME280;47690;39.202;-77.198;2024-02-26T04:57:01;100292.66;;;6.41;39.79
50105;BME280;47690;39.202;-77.198;2024-02-26T04:59:31;100291.84;;;6.42;39.70
50105;BME280;47690;39.202;-77.198;2024-02-26T05:02:00;100286.72;;;6.41;40.21
50105;BME280;47690;39.202;-77.198;2024-02-26T05:04:29;100286.72;;;6.41;40.05
50105;BME280;47690;39.202;-77.198;2024-02-26T05:06:59;100284.16;;;6.41;40.06
50105;BME280;47690;39.202;-77.198;2024-02-26T05:09:31;100282.44;;;6.38;40.15
50105;BME280;47690;39.202;-77.198;2024-02-26T05:12:03;100283.28;;;6.36;40.32
50105;BME280;47690;39.202;-77.198;2024-02-26T05:14:31;100274.75;;;6.35;40.31
50105;BME280;47690;39.202;-77.198;2024-02-26T05:17:01;100269.63;;;6.32;40.27
50105;BME280;47690;39.202;-77.198;2024-02-26T05:19:30;100272.16;;;6.31;40.21
50105;BME280;47690;39.202;-77.198;2024-02-26T05:22:00;100273.91;;;6.32;40.15
50105;BME280;47690;39.202;-77.198;2024-02-26T05:24:29;100272.19;;;6.29;40.39
50105;BME280;47690;39.202;-77.198;2024-02-26T05:27:00;100272.16;;;6.26;40.30
50105;BME280;47690;39.202;-77.198;2024-02-26T05:29:31;100267.88;;;6.25;40.45
50105;BME280;47690;39.202;-77.198;2024-02-26T05:32:00;100264.47;;;6.23;40.15
50105;BME280;47690;39.202;-77.198;2024-02-26T05:34:31;100255.09;;;6.20;40.65
50105;BME280;47690;39.202;-77.198;2024-02-26T05:37:03;100266.19;;;6.19;40.81
50105;BME280;47690;39.202;-77.198;2024-02-26T05:39:33;100262.75;;;6.19;40.91
50105;BME280;47690;39.202;-77.198;2024-02-26T05:42:04;100267.03;;;6.18;40.48
50105;BME280;47690;39.202;-77.198;2024-02-26T05:44:33;100255.94;;;6.18;40.90
50105;BME280;47690;39.202;-77.198;2024-02-26T05:47:02;100261.91;;;6.18;40.92
50105;BME280;47690;39.202;-77.198;2024-02-26T05:49:34;100256.78;;;6.12;40.77
50105;BME280;47690;39.202;-77.198;2024-02-26T05:52:04;100262.72;;;6.12;40.62
50105;BME280;47690;39.202;-77.198;2024-02-26T05:54:34;100264.41;;;6.09;41.08
50105;BME280;47690;39.202;-77.198;2024-02-26T05:57:03;100270.38;;;6.05;40.98
50105;BME280;47690;39.202;-77.198;2024-02-26T05:59:34;100266.06;;;5.99;41.15
50105;BME280;47690;39.202;-77.198;2024-02-26T06:02:04;100276.28;;;5.96;41.13
50105;BME280;47690;39.202;-77.198;2024-02-26T06:04:35;100269.44;;;5.93;41.18
50105;BME280;47690;39.202;-77.198;2024-02-26T06:07:05;100263.47;;;5.91;41.01
50105;BME280;47690;39.202;-77.198;2024-02-26T06:09:34;100266.03;;;5.91;41.33
50105;BME280;47690;39.202;-77.198;2024-02-26T06:12:03;100260.03;;;5.87;41.07
50105;BME280;47690;39.202;-77.198;2024-02-26T06:14:34;100254.09;;;5.85;41.39
50105;BME280;47690;39.202;-77.198;2024-02-26T06:17:04;100253.22;;;5.83;41.25
50105;BME280;47690;39.202;-77.198;2024-02-26T06:19:33;100245.50;;;5.79;41.49
50105;BME280;47690;39.202;-77.198;2024-02-26T06:22:03;100252.34;;;5.78;41.44
50105;BME280;47690;39.202;-77.198;2024-02-26T06:24:34;100254.03;;;5.76;41.43
50105;BME280;47690;39.202;-77.198;2024-02-26T06:27:04;100251.50;;;5.76;41.54
50105;BME280;47690;39.202;-77.198;2024-02-26T06:29:34;100248.06;;;5.74;41.58
50105;BME280;47690;39.202;-77.198;2024-02-26T06:32:04;100246.31;;;5.68;41.94
50105;BME280;47690;39.202;-77.198;2024-02-26T06:34:34;100251.41;;;5.67;41.81
50105;BME280;47690;39.202;-77.198;2024-02-26T06:37:06;100250.56;;;5.65;41.58
50105;BME280;47690;39.202;-77.198;2024-02-26T06:39:35;100243.72;;;5.62;41.66
50105;BME280;47690;39.202;-77.198;2024-02-26T06:42:05;100236.91;;;5.58;41.57
50105;BME280;47690;39.202;-77.198;2024-02-26T06:44:34;100237.72;;;5.54;41.75
50105;BME280;47690;39.202;-77.198;2024-02-26T06:47:05;100245.41;;;5.51;41.44
50105;BME280;47690;39.202;-77.198;2024-02-26T06:49:36;100242.78;;;5.46;41.48
50105;BME280;47690;39.202;-77.198;2024-02-26T06:52:06;100238.50;;;5.40;42.09
50105;BME280;47690;39.202;-77.198;2024-02-26T06:54:35;100240.16;;;5.35;42.05
50105;BME280;47690;39.202;-77.198;2024-02-26T06:57:05;100223.09;;;5.29;42.26
50105;BME280;47690;39.202;-77.198;2024-02-26T06:59:34;100229.03;;;5.27;42.43
50105;BME280;47690;39.202;-77.198;2024-02-26T07:02:05;100223.13;;;5.28;41.89
50105;BME280;47690;39.202;-77.198;2024-02-26T07:04:34;100229.03;;;5.27;41.96
50105;BME280;47690;39.202;-77.198;2024-02-26T07:07:04;100234.16;;;5.25;41.97
50105;BME280;47690;39.202;-77.198;2024-02-26T07:09:34;100233.28;;;5.20;41.93
50105;BME280;47690;39.202;-77.198;2024-02-26T07:12:05;100229.00;;;5.17;42.46
50105;BME280;47690;39.202;-77.198;2024-02-26T07:14:34;100228.97;;;5.13;41.79
50105;BME280;47690;39.202;-77.198;2024-02-26T07:17:05;100228.09;;;5.12;41.83
50105;BME280;47690;39.202;-77.198;2024-02-26T07:19:34;100219.59;;;5.10;41.99
50105;BME280;47690;39.202;-77.198;2024-02-26T07:22:03;100227.25;;;5.10;42.24
50105;BME280;47690;39.202;-77.198;2024-02-26T07:24:33;100217.06;;;5.12;42.37
50105;BME280;47690;39.202;-77.198;2024-02-26T07:27:02;100225.53;;;5.09;42.06
50105;BME280;47690;39.202;-77.198;2024-02-26T07:29:34;100218.72;;;5.11;42.49
50105;BME280;47690;39.202;-77.198;2024-02-26T07:32:05;100211.94;;;5.12;42.33
50105;BME280;47690;39.202;-77.198;2024-02-26T07:34:37;100197.47;;;5.12;42.36
50105;BME280;47690;39.202;-77.198;2024-02-26T07:37:10;100204.31;;;5.16;42.49
50105;BME280;47690;39.202;-77.198;2024-02-26T07:39:38;100195.81;;;5.17;42.52
50105;BME280;47690;39.202;-77.198;2024-02-26T07:42:07;100204.34;;;5.21;42.69
50105;BME280;47690;39.202;-77.198;2024-02-26T07:44:35;100207.75;;;5.22;42.23
50105;BME280;47690;39.202;-77.198;2024-02-26T07:47:06;100206.88;;;5.19;41.99
50105;BME280;47690;39.202;-77.198;2024-02-26T07:49:34;100211.13;;;5.14;42.28
50105;BME280;47690;39.202;-77.198;2024-02-26T07:52:06;100209.38;;;5.10;42.54
50105;BME280;47690;39.202;-77.198;2024-02-26T07:54:34;100222.13;;;5.09;41.96
50105;BME280;47690;39.202;-77.198;2024-02-26T07:57:04;100225.53;;;5.09;42.47
50105;BME280;47690;39.202;-77.198;2024-02-26T07:59:34;100223.84;;;5.08;42.75
50105;BME280;47690;39.202;-77.198;2024-02-26T08:02:04;100222.13;;;5.09;42.97
50105;BME280;47690;39.202;-77.198;2024-02-26T08:04:34;100224.72;;;5.13;42.98
50105;BME280;47690;39.202;-77.198;2024-02-26T08:07:04;100224.72;;;5.15;42.84
50105;BME280;47690;39.202;-77.198;2024-02-26T08:09:34;100234.09;;;5.17;42.90
50105;BME280;47690;39.202;-77.198;2024-02-26T08:12:03;100231.56;;;5.19;42.80
50105;BME280;47690;39.202;-77.198;2024-02-26T08:14:32;100219.63;;;5.19;43.34
50105;BME280;47690;39.202;-77.198;2024-02-26T08:17:02;100213.75;;;5.25;42.96
50105;BME280;47690;39.202;-77.198;2024-02-26T08:19:32;100216.28;;;5.28;42.94
50105;BME280;47690;39.202;-77.198;2024-02-26T08:22:04;100220.59;;;5.32;43.29
50105;BME280;47690;39.202;-77.198;2024-02-26T08:24:34;100218.91;;;5.36;42.97
50105;BME280;47690;39.202;-77.198;2024-02-26T08:27:03;100206.13;;;5.38;42.72
50105;BME280;47690;39.202;-77.198;2024-02-26T08:29:34;100219.78;;;5.41;43.35
50105;BME280;47690;39.202;-77.198;2024-02-26T08:32:04;100215.53;;;5.45;43.20
50105;BME280;47690;39.202;-77.198;2024-02-26T08:34:34;100211.25;;;5.42;43.16
50105;BME280;47690;39.202;-77.198;2024-02-26T08:37:05;100201.00;;;5.38;43.65
50105;BME280;47690;39.202;-77.198;2024-02-26T08:39:34;100206.97;;;5.37;43.37
50105;BME280;47690;39.202;-77.198;2024-02-26T08:42:04;100201.00;;;5.33;43.52
50105;BME280;47690;39.202;-77.198;2024-02-26T08:44:33;100195.00;;;5.29;43.49
50105;BME280;47690;39.202;-77.198;2024-02-26T08:47:03;100202.69;;;5.31;43.67
50105;BME280;47690;39.202;-77.198;2024-02-26T08:49:34;100194.16;;;5.30;43.01
50105;BME280;47690;39.202;-77.198;2024-02-26T08:52:04;100194.16;;;5.30;43.61
50105;BME280;47690;39.202;-77.198;2024-02-26T08:54:33;100186.50;;;5.27;43.65
50105;BME280;47690;39.202;-77.198;2024-02-26T08:57:02;100189.91;;;5.26;43.36
50105;BME280;47690;39.202;-77.198;2024-02-26T08:59:31;100187.34;;;5.26;43.43
50105;BME280;47690;39.202;-77.198;2024-02-26T09:02:04;100186.50;;;5.24;43.37
50105;BME280;47690;39.202;-77.198;2024-02-26T09:04:33;100187.31;;;5.23;43.15
50105;BME280;47690;39.202;-77.198;2024-02-26T09:07:03;100186.47;;;5.21;42.79
50105;BME280;47690;39.202;-77.198;2024-02-26T09:09:32;100186.44;;;5.19;43.26
50105;BME280;47690;39.202;-77.198;2024-02-26T09:12:02;100185.59;;;5.17;43.59
50105;BME280;47690;39.202;-77.198;2024-02-26T09:14:33;100186.41;;;5.15;43.39
50105;BME280;47690;39.202;-77.198;2024-02-26T09:17:03;100190.66;;;5.13;43.78
50105;BME280;47690;39.202;-77.198;2024-02-26T09:19:34;100190.66;;;5.16;43.84
50105;BME280;47690;39.202;-77.198;2024-02-26T09:22:04;100188.13;;;5.16;44.02
50105;BME280;47690;39.202;-77.198;2024-02-26T09:24:34;100189.84;;;5.15;44.30
50105;BME280;47690;39.202;-77.198;2024-02-26T09:27:04;100191.56;;;5.18;44.18
50105;BME280;47690;39.202;-77.198;2024-02-26T09:29:35;100189.84;;;5.18;44.22
50105;BME280;47690;39.202;-77.198;2024-02-26T09:32:05;100185.63;;;5.21;44.13
50105;BME280;47690;39.202;-77.198;2024-02-26T09:34:35;100183.91;;;5.23;44.18
50105;BME280;47690;39.202;-77.198;2024-02-26T09:37:05;100184.78;;;5.26;44.10
50105;BME280;47690;39.202;-77.198;2024-02-26T09:39:47;100186.50;;;5.29;43.97
50105;BME280;47690;39.202;-77.198;2024-02-26T09:42:18;100186.53;;;5.32;43.94
50105;BME280;47690;39.202;-77.198;2024-02-26T09:44:49;100189.94;;;5.31;43.90
50105;BME280;47690;39.202;-77.198;2024-02-26T09:47:21;100183.13;;;5.31;44.31
50105;BME280;47690;39.202;-77.198;2024-02-26T09:49:52;100183.97;;;5.32;44.10
50105;BME280;47690;39.202;-77.198;2024-02-26T09:52:23;100184.84;;;5.32;44.09
50105;BME280;47690;39.202;-77.198;2024-02-26T09:54:52;100195.06;;;5.36;43.80
50105;BME280;47690;39.202;-77.198;2024-02-26T09:57:21;100189.06;;;5.35;44.13
50105;BME280;47690;39.202;-77.198;2024-02-26T09:59:54;100185.69;;;5.35;43.88
50105;BME280;47690;39.202;-77.198;2024-02-26T10:02:28;100187.38;;;5.36;44.04
50105;BME280;47690;39.202;-77.198;2024-02-26T10:04:57;100182.25;;;5.34;44.37
50105;BME280;47690;39.202;-77.198;2024-02-26T10:07:30;100173.75;;;5.35;43.68
50105;BME280;47690;39.202;-77.198;2024-02-26T10:10:01;100188.25;;;5.38;44.09
50105;BME280;47690;39.202;-77.198;2024-02-26T10:12:32;100180.59;;;5.36;44.15
50105;BME280;47690;39.202;-77.198;2024-02-26T10:15:03;100174.63;;;5.36;44.14
50105;BME280;47690;39.202;-77.198;2024-02-26T10:17:33;100185.69;;;5.38;44.38
50105;BME280;47690;39.202;-77.198;2024-02-26T10:20:15;100187.41;;;5.39;44.45
50105;BME280;47690;39.202;-77.198;2024-02-26T10:22:45;100184.00;;;5.38;44.24
50105;BME280;47690;39.202;-77.198;2024-02-26T10:25:14;100184.84;;;5.39;44.47
50105;BME280;47690;39.202;-77.198;2024-02-26T10:27:43;100187.41;;;5.40;44.25
50105;BME280;47690;39.202;-77.198;2024-02-26T10:30:21;100188.25;;;5.42;44.77
50105;BME280;47690;39.202;-77.198;2024-02-26T10:32:52;100183.16;;;5.42;44.31
50105;BME280;47690;39.202;-77.198;2024-02-26T10:35:21;100189.97;;;5.45;44.35
50105;BME280;47690;39.202;-77.198;2024-02-26T10:37:50;100185.75;;;5.45;44.63
50105;BME280;47690;39.202;-77.198;2024-02-26T10:40:18;100193.44;;;5.47;44.28
50105;BME280;47690;39.202;-77.198;2024-02-26T10:42:47;100197.69;;;5.48;44.35
50105;BME280;47690;39.202;-77.198;2024-02-26T10:45:15;100194.25;;;5.46;44.36
50105;BME280;47690;39.202;-77.198;2024-02-26T10:47:43;100184.03;;;5.46;44.67
50105;BME280;47690;39.202;-77.198;2024-02-26T10:50:14;100186.59;;;5.47;44.70
50105;BME280;47690;39.202;-77.198;2024-02-26T10:52:46;100189.16;;;5.49;44.50
50105;BME280;47690;39.202;-77.198;2024-02-26T10:55:17;100195.13;;;5.48;44.58
50105;BME280;47690;39.202;-77.198;2024-02-26T10:57:47;100189.97;;;5.42;44.80
50105;BME280;47690;39.202;-77.198;2024-02-26T11:00:18;100191.66;;;5.33;44.44
50105;BME280;47690;39.202;-77.198;2024-02-26T11:02:47;100194.16;;;5.30;44.88
50105;BME280;47690;39.202;-77.198;2024-02-26T11:05:17;100201.84;;;5.29;45.21
50105;BME280;47690;39.202;-77.198;2024-02-26T11:07:45;100189.88;;;5.23;44.97
50105;BME280;47690;39.202;-77.198;2024-02-26T11:10:15;100199.28;;;5.27;44.67
50105;BME280;47690;39.202;-77.198;2024-02-26T11:12:45;100198.41;;;5.27;45.16
50105;BME280;47690;39.202;-77.198;2024-02-26T11:15:14;100198.41;;;5.25;44.53
50105;BME280;47690;39.202;-77.198;2024-02-26T11:17:44;100192.44;;;5.22;44.61
50105;BME280;47690;39.202;-77.198;2024-02-26T11:20:17;100194.94;;;5.15;44.95
50105;BME280;47690;39.202;-77.198;2024-02-26T11:22:47;100200.03;;;5.14;44.51
50105;BME280;47690;39.202;-77.198;2024-02-26T11:25:15;100198.31;;;5.10;45.17
50105;BME280;47690;39.202;-77.198;2024-02-26T11:27:49;100199.16;;;5.07;44.88
50105;BME280;47690;39.202;-77.198;2024-02-26T11:30:20;100201.66;;;5.04;45.64
50105;BME280;47690;39.202;-77.198;2024-02-26T11:32:52;100209.28;;;4.96;45.43
50105;BME280;47690;39.202;-77.198;2024-02-26T11:35:22;100204.97;;;4.87;45.52
50105;BME280;47690;39.202;-77.198;2024-02-26T11:37:54;100210.88;;;4.83;45.28
50105;BME280;47690;39.202;-77.198;2024-02-26T11:40:25;100210.84;;;4.78;45.13
50105;BME280;47690;39.202;-77.198;2024-02-26T11:42:54;100209.97;;;4.76;45.42
50105;BME280;47690;39.202;-77.198;2024-02-26T11:48:22;100214.19;;;4.73;45.44
50105;BME280;47690;39.202;-77.198;2024-02-26T11:50:54;100210.81;;;4.75;45.17
50105;BME280;47690;39.202;-77.198;2024-02-26T11:53:25;100215.06;;;4.75;45.55
50105;BME280;47690;39.202;-77.198;2024-02-26T11:58:42;100214.22;;;4.77;45.82
50105;BME280;47690;39.202;-77.198;2024-02-26T12:04:26;100216.72;;;4.71;45.17
50105;BME280;47690;39.202;-77.198;2024-02-26T12:07:00;100215.84;;;4.68;45.57
50105;BME280;47690;39.202;-77.198;2024-02-26T12:09:41;100226.94;;;4.70;45.99
50105;BME280;47690;39.202;-77.198;2024-02-26T12:12:12;100226.06;;;4.69;45.81
50105;BME280;47690;39.202;-77.198;2024-02-26T12:14:52;100224.34;;;4.67;46.34
50105;BME280;47690;39.202;-77.198;2024-02-26T12:17:23;100229.47;;;4.68;45.99
50105;BME280;47690;39.202;-77.198;2024-02-26T12:19:52;100231.19;;;4.72;45.66
50105;BME280;47690;39.202;-77.198;2024-02-26T12:22:21;100231.28;;;4.82;46.01
50105;BME280;47690;39.202;-77.198;2024-02-26T12:24:59;100227.97;;;4.92;45.76
50105;BME280;47690;39.202;-77.198;2024-02-26T12:27:30;100226.31;;;5.00;45.91
50105;BME280;47690;39.202;-77.198;2024-02-26T12:30:04;100231.47;;;5.03;45.65
50105;BME280;47690;39.202;-77.198;2024-02-26T12:32:35;100231.47;;;5.06;45.57
50105;BME280;47690;39.202;-77.198;2024-02-26T12:35:07;100225.56;;;5.11;45.94
50105;BME280;47690;39.202;-77.198;2024-02-26T12:37:35;100223.94;;;5.21;45.85
50105;BME280;47690;39.202;-77.198;2024-02-26T12:40:10;100214.63;;;5.33;45.59
50105;BME280;47690;39.202;-77.198;2024-02-26T12:42:39;100209.59;;;5.49;45.41
50105;BME280;47690;39.202;-77.198;2024-02-26T12:45:11;100213.09;;;5.68;45.41
50105;BME280;47690;39.202;-77.198;2024-02-26T12:47:45;100211.44;;;5.81;45.48
50105;BME280;47690;39.202;-77.198;2024-02-26T12:50:22;100217.47;;;5.96;44.92
50105;BME280;47690;39.202;-77.198;2024-02-26T12:52:51;100215.81;;;6.06;44.53
50105;BME280;47690;39.202;-77.198;2024-02-26T12:55:20;100212.44;;;6.14;44.90
50105;BME280;47690;39.202;-77.198;2024-02-26T12:57:50;100211.59;;;6.23;44.69
50105;BME280;47690;39.202;-77.198;2024-02-26T13:00:27;100217.63;;;6.36;44.95
50105;BME280;47690;39.202;-77.198;2024-02-26T13:02:57;100220.19;;;6.47;44.70
50105;BME280;47690;39.202;-77.198;2024-02-26T13:05:29;100224.47;;;6.59;44.50